sensor_id;sensor_type;location;lat;lon;timestamp;temperature;humidity
3300;DHT22;1662;49.310;8.134;2023-11-21T00:00:16;8.90;99.90
3300;DHT22;1662;49.310;8.134;2023-11-21T00:02:43;8.90;99.90
3300;DHT22;1662;49.310;8.134;2023-11-21T00:05:14;8.90;99.90
3300;DHT22;1662;49.310;8.134;2023-11-21T00:07:40;8.90;99.90
3300;DHT22;1662;49.310;8.134;2023-11-21T00:10:07;9.00;99.90
3300;DHT22;1662;49.310;8.134;2023-11-21T00:12:34;9.00;99.90
3300;DHT22;1662;49.310;8.134;2023-11-21T00:15:00;9.00;99.90
3300;DHT22;1662;49.310;8.134;2023-11-21T00:17:25;9.00;99.90
3300;DHT22;1662;49.310;8.134;2023-11-21T00:19:51;9.00;99.90
3300;DHT22;1662;49.310;8.134;2023-11-21T00:22:19;9.00;99.90
3300;DHT22;1662;49.310;8.134;2023-11-21T00:24:47;9.10;99.90
3300;DHT22;1662;49.310;8.134;2023-11-21T00:27:13;9.10;99.90
3300;DHT22;1662;49.310;8.134;2023-11-21T00:29:39;9.10;99.90
3300;DHT22;1662;49.310;8.134;2023-11-21T00:32:06;9.10;99.90
3300;DHT22;1662;49.310;8.134;2023-11-21T00:34:34;9.10;99.90
3300;DHT22;1662;49.310;8.134;2023-11-21T00:37:00;9.10;99.90
3300;DHT22;1662;49.310;8.134;2023-11-21T00:39:25;9.10;99.90
3300;DHT22;1662;49.310;8.134;2023-11-21T00:41:52;9.10;99.90
3300;DHT22;1662;49.310;8.134;2023-11-21T00:44:18;9.10;99.90
3300;DHT22;1662;49.310;8.134;2023-11-21T00:46:43;9.10;99.90
3300;DHT22;1662;49.310;8.134;2023-11-21T00:49:09;9.10;99.90
3300;DHT22;1662;49.310;8.134;2023-11-21T00:51:35;9.10;99.90
3300;DHT22;1662;49.310;8.134;2023-11-21T00:54:01;9.10;99.90
3300;DHT22;1662;49.310;8.134;2023-11-21T00:56:27;9.10;99.90
3300;DHT22;1662;49.310;8.134;2023-11-21T00:58:53;9.10;99.90
3300;DHT22;1662;49.310;8.134;2023-11-21T01:01:21;9.10;99.90
3300;DHT22;1662;49.310;8.134;2023-11-21T01:03:48;9.10;99.90
3300;DHT22;1662;49.310;8.134;2023-11-21T01:06:15;9.10;99.90
3300;DHT22;1662;49.310;8.134;2023-11-21T01:08:40;9.10;99.90
3300;DHT22;1662;49.310;8.134;2023-11-21T01:11:06;9.10;99.90
3300;DHT22;1662;49.310;8.134;2023-11-21T01:13:35;9.10;99.90
3300;DHT22;1662;49.310;8.134;2023-11-21T01:16:01;9.10;99.90
3300;DHT22;1662;49.310;8.134;2023-11-21T01:18:27;9.10;99.90
3300;DHT22;1662;49.310;8.134;2023-11-21T01:20:52;9.10;99.90
3300;DHT22;1662;49.310;8.134;2023-11-21T01:23:21;9.10;99.90
3300;DHT22;1662;49.310;8.134;2023-11-21T01:25:47;9.10;99.90
3300;DHT22;1662;49.310;8.134;2023-11-21T01:28:13;9.10;99.90
3300;DHT22;1662;49.310;8.134;2023-11-21T01:30:38;9.10;99.90
3300;DHT22;1662;49.310;8.134;2023-11-21T01:33:04;9.10;99.90
3300;DHT22;1662;49.310;8.134;2023-11-21T01:35:30;9.10;99.90
3300;DHT22;1662;49.310;8.134;2023-11-21T01:37:55;9.10;99.90
3300;DHT22;1662;49.310;8.134;2023-11-21T01:40:21;9.10;99.90
3300;DHT22;1662;49.310;8.134;2023-11-21T01:42:49;9.10;99.90
3300;DHT22;1662;49.310;8.134;2023-11-21T01:45:15;9.10;99.90
3300;DHT22;1662;49.310;8.134;2023-11-21T01:47:41;9.20;99.90
3300;DHT22;1662;49.310;8.134;2023-11-21T01:50:08;9.20;99.90
3300;DHT22;1662;49.310;8.134;2023-11-21T01:52:38;9.20;99.90
3300;DHT22;1662;49.310;8.134;2023-11-21T01:55:06;9.10;99.90
3300;DHT22;1662;49.310;8.134;2023-11-21T01:57:36;9.20;99.90
3300;DHT22;1662;49.310;8.134;2023-11-21T02:00:03;9.30;99.90
3300;DHT22;1662;49.310;8.134;2023-11-21T02:02:50;9.20;99.90
3300;DHT22;1662;49.310;8.134;2023-11-21T02:05:16;9.20;99.90
3300;DHT22;1662;49.310;8.134;2023-11-21T02:07:47;9.30;99.90
3300;DHT22;1662;49.310;8.134;2023-11-21T02:10:17;9.30;99.90
3300;DHT22;1662;49.310;8.134;2023-11-21T02:12:48;9.30;99.90
3300;DHT22;1662;49.310;8.134;2023-11-21T02:15:17;9.30;99.90
3300;DHT22;1662;49.310;8.134;2023-11-21T02:17:46;9.30;99.90
3300;DHT22;1662;49.310;8.134;2023-11-21T02:20:13;9.30;99.90
3300;DHT22;1662;49.310;8.134;2023-11-21T02:22:48;9.30;99.90
3300;DHT22;1662;49.310;8.134;2023-11-21T02:25:14;9.30;99.90
3300;DHT22;1662;49.310;8.134;2023-11-21T02:27:40;9.30;99.90
3300;DHT22;1662;49.310;8.134;2023-11-21T02:30:06;9.30;99.90
3300;DHT22;1662;49.310;8.134;2023-11-21T02:32:33;9.30;99.90
3300;DHT22;1662;49.310;8.134;2023-11-21T02:34:59;9.30;99.90
3300;DHT22;1662;49.310;8.134;2023-11-21T02:37:35;9.30;99.90
3300;DHT22;1662;49.310;8.134;2023-11-21T02:40:01;9.30;99.90
3300;DHT22;1662;49.310;8.134;2023-11-21T02:42:31;9.30;99.90
3300;DHT22;1662;49.310;8.134;2023-11-21T02:44:57;9.30;99.90
3300;DHT22;1662;49.310;8.134;2023-11-21T02:47:23;9.30;99.90
3300;DHT22;1662;49.310;8.134;2023-11-21T02:49:49;9.30;99.90
3300;DHT22;1662;49.310;8.134;2023-11-21T02:52:17;9.30;99.90
3300;DHT22;1662;49.310;8.134;2023-11-21T02:54:44;9.30;99.90
3300;DHT22;1662;49.310;8.134;2023-11-21T02:57:10;9.30;99.90
3300;DHT22;1662;49.310;8.134;2023-11-21T02:59:37;9.20;99.90
3300;DHT22;1662;49.310;8.134;2023-11-21T03:02:03;9.30;99.90
3300;DHT22;1662;49.310;8.134;2023-11-21T03:04:29;9.30;99.90
3300;DHT22;1662;49.310;8.134;2023-11-21T03:06:54;9.00;99.90
3300;DHT22;1662;49.310;8.134;2023-11-21T03:09:23;9.30;99.90
3300;DHT22;1662;49.310;8.134;2023-11-21T03:11:48;9.30;99.90
3300;DHT22;1662;49.310;8.134;2023-11-21T03:14:18;9.30;99.90
3300;DHT22;1662;49.310;8.134;2023-11-21T03:16:44;9.30;99.90
3300;DHT22;1662;49.310;8.134;2023-11-21T03:19:11;9.30;99.90
3300;DHT22;1662;49.310;8.134;2023-11-21T03:21:36;9.30;99.90
3300;DHT22;1662;49.310;8.134;2023-11-21T03:24:02;9.20;99.90
3300;DHT22;1662;49.310;8.134;2023-11-21T03:26:28;9.30;99.90
3300;DHT22;1662;49.310;8.134;2023-11-21T03:28:55;9.30;99.90
3300;DHT22;1662;49.310;8.134;2023-11-21T03:31:23;9.50;99.90
3300;DHT22;1662;49.310;8.134;2023-11-21T03:33:49;9.30;99.90
3300;DHT22;1662;49.310;8.134;2023-11-21T03:36:14;9.30;99.90
3300;DHT22;1662;49.310;8.134;2023-11-21T03:38:41;9.30;99.90
3300;DHT22;1662;49.310;8.134;2023-11-21T03:41:07;9.30;99.90
3300;DHT22;1662;49.310;8.134;2023-11-21T03:43:38;9.20;99.90
3300;DHT22;1662;49.310;8.134;2023-11-21T03:46:04;9.20;99.90
3300;DHT22;1662;49.310;8.134;2023-11-21T03:48:30;9.20;99.90
3300;DHT22;1662;49.310;8.134;2023-11-21T03:50:55;9.00;99.90
3300;DHT22;1662;49.310;8.134;2023-11-21T03:53:21;9.20;99.90
3300;DHT22;1662;49.310;8.134;2023-11-21T03:55:47;9.20;99.90
3300;DHT22;1662;49.310;8.134;2023-11-21T03:58:12;9.20;99.90
3300;DHT22;1662;49.310;8.134;2023-11-21T04:00:39;9.30;99.90
3300;DHT22;1662;49.310;8.134;2023-11-21T04:03:04;9.30;99.90
3300;DHT22;1662;49.310;8.134;2023-11-21T04:05:30;9.30;99.90
3300;DHT22;1662;49.310;8.134;2023-11-21T04:07:56;9.30;99.90
3300;DHT22;1662;49.310;8.134;2023-11-21T04:10:22;9.30;99.90
3300;DHT22;1662;49.310;8.134;2023-11-21T04:12:47;9.30;99.90
3300;DHT22;1662;49.310;8.134;2023-11-21T04:15:14;9.30;99.90
3300;DHT22;1662;49.310;8.134;2023-11-21T04:17:42;9.30;99.90
3300;DHT22;1662;49.310;8.134;2023-11-21T04:20:08;9.30;99.90
3300;DHT22;1662;49.310;8.134;2023-11-21T04:22:41;9.30;99.90
3300;DHT22;1662;49.310;8.134;2023-11-21T04:25:12;9.30;99.90
3300;DHT22;1662;49.310;8.134;2023-11-21T04:27:43;9.30;99.90
3300;DHT22;1662;49.310;8.134;2023-11-21T04:30:10;9.70;99.90
3300;DHT22;1662;49.310;8.134;2023-11-21T04:32:36;9.30;99.90
3300;DHT22;1662;49.310;8.134;2023-11-21T04:35:01;9.30;99.90
3300;DHT22;1662;49.310;8.134;2023-11-21T04:37:27;9.30;99.90
3300;DHT22;1662;49.310;8.134;2023-11-21T04:39:55;9.30;99.90
3300;DHT22;1662;49.310;8.134;2023-11-21T04:42:21;9.30;99.90
3300;DHT22;1662;49.310;8.134;2023-11-21T04:44:47;9.30;99.90
3300;DHT22;1662;49.310;8.134;2023-11-21T04:47:13;9.40;99.90
3300;DHT22;1662;49.310;8.134;2023-11-21T04:49:43;9.30;99.90
3300;DHT22;1662;49.310;8.134;2023-11-21T04:52:09;9.30;99.90
3300;DHT22;1662;49.310;8.134;2023-11-21T04:54:37;9.30;99.90
3300;DHT22;1662;49.310;8.134;2023-11-21T04:57:03;9.30;99.90
3300;DHT22;1662;49.310;8.134;2023-11-21T04:59:30;9.30;99.90
3300;DHT22;1662;49.310;8.134;2023-11-21T05:01:55;9.30;99.90
3300;DHT22;1662;49.310;8.134;2023-11-21T05:04:21;9.30;99.90
3300;DHT22;1662;49.310;8.134;2023-11-21T05:06:48;9.10;99.90
3300;DHT22;1662;49.310;8.134;2023-11-21T05:09:13;9.30;99.90
3300;DHT22;1662;49.310;8.134;2023-11-21T05:11:39;9.30;99.90
3300;DHT22;1662;49.310;8.134;2023-11-21T05:14:06;9.30;99.90
3300;DHT22;1662;49.310;8.134;2023-11-21T05:16:32;9.40;99.90
3300;DHT22;1662;49.310;8.134;2023-11-21T05:18:59;9.30;99.90
3300;DHT22;1662;49.310;8.134;2023-11-21T05:21:27;9.30;99.90
3300;DHT22;1662;49.310;8.134;2023-11-21T05:23:53;9.20;99.90
3300;DHT22;1662;49.310;8.134;2023-11-21T05:26:19;9.30;99.90
3300;DHT22;1662;49.310;8.134;2023-11-21T05:28:44;9.40;99.90
3300;DHT22;1662;49.310;8.134;2023-11-21T05:31:10;9.40;99.90
3300;DHT22;1662;49.310;8.134;2023-11-21T05:33:36;9.40;99.90
3300;DHT22;1662;49.310;8.134;2023-11-21T05:36:02;9.30;99.90
3300;DHT22;1662;49.310;8.134;2023-11-21T05:38:28;9.30;99.90
3300;DHT22;1662;49.310;8.134;2023-11-21T05:40:53;9.40;99.90
3300;DHT22;1662;49.310;8.134;2023-11-21T05:43:22;9.40;99.90
3300;DHT22;1662;49.310;8.134;2023-11-21T05:45:49;9.30;99.90
3300;DHT22;1662;49.310;8.134;2023-11-21T05:48:15;9.30;99.90
3300;DHT22;1662;49.310;8.134;2023-11-21T05:50:41;9.70;99.90
3300;DHT22;1662;49.310;8.134;2023-11-21T05:53:07;9.70;99.90
3300;DHT22;1662;49.310;8.134;2023-11-21T05:55:32;9.40;99.90
3300;DHT22;1662;49.310;8.134;2023-11-21T05:58:00;10.20;99.90
3300;DHT22;1662;49.310;8.134;2023-11-21T06:00:26;9.40;99.90
3300;DHT22;1662;49.310;8.134;2023-11-21T06:02:53;9.40;99.90
3300;DHT22;1662;49.310;8.134;2023-11-21T06:05:21;9.40;99.90
3300;DHT22;1662;49.310;8.134;2023-11-21T06:07:55;9.40;99.90
3300;DHT22;1662;49.310;8.134;2023-11-21T06:10:24;9.40;99.90
3300;DHT22;1662;49.310;8.134;2023-11-21T06:12:50;9.30;99.90
3300;DHT22;1662;49.310;8.134;2023-11-21T06:15:16;9.30;99.90
3300;DHT22;1662;49.310;8.134;2023-11-21T06:17:44;9.10;99.90
3300;DHT22;1662;49.310;8.134;2023-11-21T06:20:14;9.40;99.90
3300;DHT22;1662;49.310;8.134;2023-11-21T06:22:45;9.30;99.90
3300;DHT22;1662;49.310;8.134;2023-11-21T06:25:12;9.40;99.90
3300;DHT22;1662;49.310;8.134;2023-11-21T06:27:40;9.30;99.90
3300;DHT22;1662;49.310;8.134;2023-11-21T06:30:07;9.30;99.90
3300;DHT22;1662;49.310;8.134;2023-11-21T06:32:35;9.40;99.90
3300;DHT22;1662;49.310;8.134;2023-11-21T06:35:01;9.40;99.90
3300;DHT22;1662;49.310;8.134;2023-11-21T06:37:28;9.50;99.90
3300;DHT22;1662;49.310;8.134;2023-11-21T06:39:54;9.10;99.90
3300;DHT22;1662;49.310;8.134;2023-11-21T06:42:20;9.10;99.90
3300;DHT22;1662;49.310;8.134;2023-11-21T06:44:50;9.30;99.90
3300;DHT22;1662;49.310;8.134;2023-11-21T06:47:19;9.10;99.90
3300;DHT22;1662;49.310;8.134;2023-11-21T06:49:54;9.40;99.90
3300;DHT22;1662;49.310;8.134;2023-11-21T06:52:19;9.40;99.90
3300;DHT22;1662;49.310;8.134;2023-11-21T06:54:45;9.30;99.90
3300;DHT22;1662;49.310;8.134;2023-11-21T06:57:11;9.60;99.90
3300;DHT22;1662;49.310;8.134;2023-11-21T06:59:37;9.30;99.90
3300;DHT22;1662;49.310;8.134;2023-11-21T07:02:03;9.20;99.90
3300;DHT22;1662;49.310;8.134;2023-11-21T07:04:30;9.30;99.90
3300;DHT22;1662;49.310;8.134;2023-11-21T07:06:55;9.30;99.90
3300;DHT22;1662;49.310;8.134;2023-11-21T07:09:21;9.30;99.90
3300;DHT22;1662;49.310;8.134;2023-11-21T07:11:50;9.50;99.90
3300;DHT22;1662;49.310;8.134;2023-11-21T07:14:18;9.30;99.90
3300;DHT22;1662;49.310;8.134;2023-11-21T07:16:45;9.30;99.90
3300;DHT22;1662;49.310;8.134;2023-11-21T07:19:11;9.30;99.90
3300;DHT22;1662;49.310;8.134;2023-11-21T07:21:38;9.20;99.90
3300;DHT22;1662;49.310;8.134;2023-11-21T07:24:05;9.40;99.90
3300;DHT22;1662;49.310;8.134;2023-11-21T07:26:32;9.30;99.90
3300;DHT22;1662;49.310;8.134;2023-11-21T07:28:59;9.30;99.90
3300;DHT22;1662;49.310;8.134;2023-11-21T07:31:24;9.30;99.90
3300;DHT22;1662;49.310;8.134;2023-11-21T07:33:50;9.30;99.90
3300;DHT22;1662;49.310;8.134;2023-11-21T07:36:16;9.30;99.90
3300;DHT22;1662;49.310;8.134;2023-11-21T07:38:49;9.40;99.90
3300;DHT22;1662;49.310;8.134;2023-11-21T07:41:20;9.40;99.90
3300;DHT22;1662;49.310;8.134;2023-11-21T07:43:46;9.40;99.90
3300;DHT22;1662;49.310;8.134;2023-11-21T07:46:12;9.40;99.90
3300;DHT22;1662;49.310;8.134;2023-11-21T07:48:42;9.40;99.90
3300;DHT22;1662;49.310;8.134;2023-11-21T07:51:08;9.40;99.90
3300;DHT22;1662;49.310;8.134;2023-11-21T07:53:35;9.40;99.90
3300;DHT22;1662;49.310;8.134;2023-11-21T07:56:05;9.40;99.90
3300;DHT22;1662;49.310;8.134;2023-11-21T07:58:31;9.40;99.90
3300;DHT22;1662;49.310;8.134;2023-11-21T08:01:02;9.40;99.90
3300;DHT22;1662;49.310;8.134;2023-11-21T08:03:28;9.40;99.90
3300;DHT22;1662;49.310;8.134;2023-11-21T08:06:00;9.30;99.90
3300;DHT22;1662;49.310;8.134;2023-11-21T08:08:25;9.60;99.90
3300;DHT22;1662;49.310;8.134;2023-11-21T08:10:52;9.70;99.90
3300;DHT22;1662;49.310;8.134;2023-11-21T08:13:27;9.70;99.90
3300;DHT22;1662;49.310;8.134;2023-11-21T08:15:57;9.80;99.90
3300;DHT22;1662;49.310;8.134;2023-11-21T08:18:27;9.90;99.90
3300;DHT22;1662;49.310;8.134;2023-11-21T08:20:52;10.20;99.90
3300;DHT22;1662;49.310;8.134;2023-11-21T08:23:20;10.10;99.90
3300;DHT22;1662;49.310;8.134;2023-11-21T08:25:51;10.00;99.90
3300;DHT22;1662;49.310;8.134;2023-11-21T08:28:17;10.00;99.90
3300;DHT22;1662;49.310;8.134;2023-11-21T08:30:42;9.90;99.90
3300;DHT22;1662;49.310;8.134;2023-11-21T08:33:09;9.90;99.90
3300;DHT22;1662;49.310;8.134;2023-11-21T08:35:37;9.90;99.90
3300;DHT22;1662;49.310;8.134;2023-11-21T08:38:03;9.80;99.90
3300;DHT22;1662;49.310;8.134;2023-11-21T08:40:28;9.80;99.90
3300;DHT22;1662;49.310;8.134;2023-11-21T08:42:54;9.80;99.90
3300;DHT22;1662;49.310;8.134;2023-11-21T08:45:21;9.80;99.90
3300;DHT22;1662;49.310;8.134;2023-11-21T08:47:47;9.80;99.90
3300;DHT22;1662;49.310;8.134;2023-11-21T08:50:13;9.90;99.90
3300;DHT22;1662;49.310;8.134;2023-11-21T08:52:42;9.90;99.90
3300;DHT22;1662;49.310;8.134;2023-11-21T08:55:09;9.90;99.90
3300;DHT22;1662;49.310;8.134;2023-11-21T08:57:37;9.90;99.90
3300;DHT22;1662;49.310;8.134;2023-11-21T09:00:05;9.90;99.90
3300;DHT22;1662;49.310;8.134;2023-11-21T09:02:33;9.90;99.90
3300;DHT22;1662;49.310;8.134;2023-11-21T09:05:00;9.90;99.90
3300;DHT22;1662;49.310;8.134;2023-11-21T09:07:28;10.00;99.90
3300;DHT22;1662;49.310;8.134;2023-11-21T09:09:56;9.90;99.90
3300;DHT22;1662;49.310;8.134;2023-11-21T09:12:22;9.90;99.90
3300;DHT22;1662;49.310;8.134;2023-11-21T09:14:50;10.00;99.90
3300;DHT22;1662;49.310;8.134;2023-11-21T09:17:16;10.00;99.90
3300;DHT22;1662;49.310;8.134;2023-11-21T09:19:42;10.00;99.90
3300;DHT22;1662;49.310;8.134;2023-11-21T09:22:15;10.00;99.90
3300;DHT22;1662;49.310;8.134;2023-11-21T09:24:41;10.10;99.90
3300;DHT22;1662;49.310;8.134;2023-11-21T09:27:08;10.10;99.90
3300;DHT22;1662;49.310;8.134;2023-11-21T09:29:33;10.10;99.90
3300;DHT22;1662;49.310;8.134;2023-11-21T09:31:59;10.00;99.90
3300;DHT22;1662;49.310;8.134;2023-11-21T09:34:25;10.10;99.90
3300;DHT22;1662;49.310;8.134;2023-11-21T09:36:51;10.10;99.90
3300;DHT22;1662;49.310;8.134;2023-11-21T09:39:19;10.10;99.90
3300;DHT22;1662;49.310;8.134;2023-11-21T09:41:52;10.10;99.90
3300;DHT22;1662;49.310;8.134;2023-11-21T09:44:46;10.30;99.90
3300;DHT22;1662;49.310;8.134;2023-11-21T09:47:15;10.20;99.90
3300;DHT22;1662;49.310;8.134;2023-11-21T09:49:47;10.10;99.90
3300;DHT22;1662;49.310;8.134;2023-11-21T09:52:22;10.10;99.90
3300;DHT22;1662;49.310;8.134;2023-11-21T09:54:51;10.10;99.90
3300;DHT22;1662;49.310;8.134;2023-11-21T09:57:19;10.10;99.90
3300;DHT22;1662;49.310;8.134;2023-11-21T09:59:47;10.00;99.90
3300;DHT22;1662;49.310;8.134;2023-11-21T10:02:18;10.00;99.90
3300;DHT22;1662;49.310;8.134;2023-11-21T10:04:46;10.00;99.90
3300;DHT22;1662;49.310;8.134;2023-11-21T10:07:13;10.00;99.90
3300;DHT22;1662;49.310;8.134;2023-11-21T10:09:41;10.00;99.90
3300;DHT22;1662;49.310;8.134;2023-11-21T10:12:08;10.00;99.90
3300;DHT22;1662;49.310;8.134;2023-11-21T10:14:37;10.00;99.90
3300;DHT22;1662;49.310;8.134;2023-11-21T10:17:06;10.00;99.90
3300;DHT22;1662;49.310;8.134;2023-11-21T10:19:35;10.00;99.90
3300;DHT22;1662;49.310;8.134;2023-11-21T10:22:02;10.00;99.90
3300;DHT22;1662;49.310;8.134;2023-11-21T10:24:29;10.00;99.90
3300;DHT22;1662;49.310;8.134;2023-11-21T10:26:54;10.00;99.90
3300;DHT22;1662;49.310;8.134;2023-11-21T10:29:20;10.00;99.90
3300;DHT22;1662;49.310;8.134;2023-11-21T10:31:49;10.00;99.90
3300;DHT22;1662;49.310;8.134;2023-11-21T10:34:17;10.00;99.90
3300;DHT22;1662;49.310;8.134;2023-11-21T10:36:44;10.00;99.90
3300;DHT22;1662;49.310;8.134;2023-11-21T10:39:17;10.00;99.90
3300;DHT22;1662;49.310;8.134;2023-11-21T10:41:44;10.00;99.90
3300;DHT22;1662;49.310;8.134;2023-11-21T10:44:13;10.00;99.90
3300;DHT22;1662;49.310;8.134;2023-11-21T10:46:40;10.00;99.90
3300;DHT22;1662;49.310;8.134;2023-11-21T10:49:06;10.10;99.90
3300;DHT22;1662;49.310;8.134;2023-11-21T10:51:32;10.10;99.90
3300;DHT22;1662;49.310;8.134;2023-11-21T10:53:59;10.10;99.90
3300;DHT22;1662;49.310;8.134;2023-11-21T10:56:26;10.10;99.90
3300;DHT22;1662;49.310;8.134;2023-11-21T10:58:52;10.10;99.90
3300;DHT22;1662;49.310;8.134;2023-11-21T11:01:21;10.20;99.90
3300;DHT22;1662;49.310;8.134;2023-11-21T11:03:49;10.20;99.90
3300;DHT22;1662;49.310;8.134;2023-11-21T11:06:16;10.20;99.90
3300;DHT22;1662;49.310;8.134;2023-11-21T11:08:42;10.20;99.90
3300;DHT22;1662;49.310;8.134;2023-11-21T11:11:10;10.20;99.90
3300;DHT22;1662;49.310;8.134;2023-11-21T11:13:37;10.30;99.90
3300;DHT22;1662;49.310;8.134;2023-11-21T11:16:03;10.30;99.90
3300;DHT22;1662;49.310;8.134;2023-11-21T11:18:32;10.30;99.90
3300;DHT22;1662;49.310;8.134;2023-11-21T11:21:22;10.30;99.90
3300;DHT22;1662;49.310;8.134;2023-11-21T11:27:02;10.40;99.90
3300;DHT22;1662;49.310;8.134;2023-11-21T11:29:43;10.40;99.90
3300;DHT22;1662;49.310;8.134;2023-11-21T11:36:02;10.40;99.90
3300;DHT22;1662;49.310;8.134;2023-11-21T11:38:27;10.40;99.90
3300;DHT22;1662;49.310;8.134;2023-11-21T11:40:56;10.40;99.90
3300;DHT22;1662;49.310;8.134;2023-11-21T11:43:26;10.30;99.90
3300;DHT22;1662;49.310;8.134;2023-11-21T11:45:55;10.30;99.90
3300;DHT22;1662;49.310;8.134;2023-11-21T11:48:22;10.30;99.90
3300;DHT22;1662;49.310;8.134;2023-11-21T11:51:10;10.20;99.90
3300;DHT22;1662;49.310;8.134;2023-11-21T11:53:44;10.20;99.90
3300;DHT22;1662;49.310;8.134;2023-11-21T11:58:49;10.60;99.90
3300;DHT22;1662;49.310;8.134;2023-11-21T12:01:22;10.60;99.90
3300;DHT22;1662;49.310;8.134;2023-11-21T12:06:42;10.60;99.90
3300;DHT22;1662;49.310;8.134;2023-11-21T12:09:22;10.60;99.90
3300;DHT22;1662;49.310;8.134;2023-11-21T12:11:50;10.60;99.90
3300;DHT22;1662;49.310;8.134;2023-11-21T12:14:16;10.50;99.90
3300;DHT22;1662;49.310;8.134;2023-11-21T12:16:42;10.70;99.90
3300;DHT22;1662;49.310;8.134;2023-11-21T12:19:12;10.60;99.90
3300;DHT22;1662;49.310;8.134;2023-11-21T12:21:38;10.50;99.90
3300;DHT22;1662;49.310;8.134;2023-11-21T12:24:06;10.50;99.90
3300;DHT22;1662;49.310;8.134;2023-11-21T12:26:36;10.50;99.90
3300;DHT22;1662;49.310;8.134;2023-11-21T12:29:02;10.60;99.90
3300;DHT22;1662;49.310;8.134;2023-11-21T12:31:30;10.60;99.90
3300;DHT22;1662;49.310;8.134;2023-11-21T12:33:56;10.60;99.90
3300;DHT22;1662;49.310;8.134;2023-11-21T12:36:23;10.70;99.90
3300;DHT22;1662;49.310;8.134;2023-11-21T12:38:49;10.70;99.90
3300;DHT22;1662;49.310;8.134;2023-11-21T12:41:16;10.90;99.90
3300;DHT22;1662;49.310;8.134;2023-11-21T12:43:42;11.00;99.90
3300;DHT22;1662;49.310;8.134;2023-11-21T12:46:10;11.30;99.90
3300;DHT22;1662;49.310;8.134;2023-11-21T12:48:39;11.50;99.90
3300;DHT22;1662;49.310;8.134;2023-11-21T12:51:08;11.60;99.90
3300;DHT22;1662;49.310;8.134;2023-11-21T12:53:35;11.60;99.90
3300;DHT22;1662;49.310;8.134;2023-11-21T12:56:09;11.50;99.90
3300;DHT22;1662;49.310;8.134;2023-11-21T12:58:36;11.50;99.90
3300;DHT22;1662;49.310;8.134;2023-11-21T13:01:02;11.40;99.90
3300;DHT22;1662;49.310;8.134;2023-11-21T13:03:29;11.40;99.90
3300;DHT22;1662;49.310;8.134;2023-11-21T13:05:55;11.30;99.90
3300;DHT22;1662;49.310;8.134;2023-11-21T13:08:23;11.30;99.90
3300;DHT22;1662;49.310;8.134;2023-11-21T13:10:51;11.20;99.90
3300;DHT22;1662;49.310;8.134;2023-11-21T13:13:17;11.20;99.90
3300;DHT22;1662;49.310;8.134;2023-11-21T13:18:15;11.20;99.90
3300;DHT22;1662;49.310;8.134;2023-11-21T13:20:41;11.10;99.90
3300;DHT22;1662;49.310;8.134;2023-11-21T13:23:09;11.10;99.90
3300;DHT22;1662;49.310;8.134;2023-11-21T13:25:37;11.10;99.90
3300;DHT22;1662;49.310;8.134;2023-11-21T13:28:05;11.10;99.90
3300;DHT22;1662;49.310;8.134;2023-11-21T13:30:30;11.20;99.90
3300;DHT22;1662;49.310;8.134;2023-11-21T13:33:00;11.30;99.90
3300;DHT22;1662;49.310;8.134;2023-11-21T13:35:31;11.30;99.90
3300;DHT22;1662;49.310;8.134;2023-11-21T13:38:05;11.30;99.90
3300;DHT22;1662;49.310;8.134;2023-11-21T13:40:33;11.40;99.90
3300;DHT22;1662;49.310;8.134;2023-11-21T13:43:05;11.60;99.90
3300;DHT22;1662;49.310;8.134;2023-11-21T13:45:30;11.70;99.90
3300;DHT22;1662;49.310;8.134;2023-11-21T13:47:56;11.70;99.90
3300;DHT22;1662;49.310;8.134;2023-11-21T13:50:27;11.80;99.90
3300;DHT22;1662;49.310;8.134;2023-11-21T13:52:59;11.90;99.90
3300;DHT22;1662;49.310;8.134;2023-11-21T13:55:45;11.80;99.90
3300;DHT22;1662;49.310;8.134;2023-11-21T13:58:13;12.00;99.90
3300;DHT22;1662;49.310;8.134;2023-11-21T14:00:45;12.00;99.90
3300;DHT22;1662;49.310;8.134;2023-11-21T14:03:14;12.00;99.90
3300;DHT22;1662;49.310;8.134;2023-11-21T14:05:48;12.00;99.90
3300;DHT22;1662;49.310;8.134;2023-11-21T14:08:21;11.90;99.90
3300;DHT22;1662;49.310;8.134;2023-11-21T14:10:48;11.80;99.90
3300;DHT22;1662;49.310;8.134;2023-11-21T14:13:21;11.80;99.90
3300;DHT22;1662;49.310;8.134;2023-11-21T14:15:49;11.80;99.90
3300;DHT22;1662;49.310;8.134;2023-11-21T14:18:23;11.80;99.90
3300;DHT22;1662;49.310;8.134;2023-11-21T14:20:56;11.80;99.90
3300;DHT22;1662;49.310;8.134;2023-11-21T14:23:21;11.80;99.90
3300;DHT22;1662;49.310;8.134;2023-11-21T14:25:49;11.70;99.90
3300;DHT22;1662;49.310;8.134;2023-11-21T14:28:16;11.70;99.90
3300;DHT22;1662;49.310;8.134;2023-11-21T14:30:42;11.70;99.90
3300;DHT22;1662;49.310;8.134;2023-11-21T14:33:08;11.70;99.90
3300;DHT22;1662;49.310;8.134;2023-11-21T14:35:35;11.70;99.90
3300;DHT22;1662;49.310;8.134;2023-11-21T14:38:02;11.60;99.90
3300;DHT22;1662;49.310;8.134;2023-11-21T14:40:30;11.60;99.90
3300;DHT22;1662;49.310;8.134;2023-11-21T14:43:03;11.50;99.90
3300;DHT22;1662;49.310;8.134;2023-11-21T14:45:36;11.50;99.90
3300;DHT22;1662;49.310;8.134;2023-11-21T14:48:02;11.50;99.90
3300;DHT22;1662;49.310;8.134;2023-11-21T14:50:35;11.40;99.90
3300;DHT22;1662;49.310;8.134;2023-11-21T14:53:03;11.40;99.90
3300;DHT22;1662;49.310;8.134;2023-11-21T14:55:35;11.30;99.90
3300;DHT22;1662;49.310;8.134;2023-11-21T14:58:06;11.30;99.90
3300;DHT22;1662;49.310;8.134;2023-11-21T15:00:36;11.30;99.90
3300;DHT22;1662;49.310;8.134;2023-11-21T15:03:02;11.30;99.90
3300;DHT22;1662;49.310;8.134;2023-11-21T15:05:28;11.20;99.90
3300;DHT22;1662;49.310;8.134;2023-11-21T15:07:55;11.20;99.90
3300;DHT22;1662;49.310;8.134;2023-11-21T15:10:36;11.10;99.90
3300;DHT22;1662;49.310;8.134;2023-11-21T15:13:12;11.10;99.90
3300;DHT22;1662;49.310;8.134;2023-11-21T15:15:39;11.00;99.90
3300;DHT22;1662;49.310;8.134;2023-11-21T15:18:05;11.00;99.90
3300;DHT22;1662;49.310;8.134;2023-11-21T15:20:32;11.00;99.90
3300;DHT22;1662;49.310;8.134;2023-11-21T15:22:57;11.00;99.90
3300;DHT22;1662;49.310;8.134;2023-11-21T15:25:23;11.00;99.90
3300;DHT22;1662;49.310;8.134;2023-11-21T15:27:49;11.00;99.90
3300;DHT22;1662;49.310;8.134;2023-11-21T15:30:16;10.90;99.90
3300;DHT22;1662;49.310;8.134;2023-11-21T15:32:45;10.90;99.90
3300;DHT22;1662;49.310;8.134;2023-11-21T15:35:12;10.90;99.90
3300;DHT22;1662;49.310;8.134;2023-11-21T15:37:40;10.80;99.90
3300;DHT22;1662;49.310;8.134;2023-11-21T15:40:06;10.80;99.90
3300;DHT22;1662;49.310;8.134;2023-11-21T15:42:34;10.80;99.90
3300;DHT22;1662;49.310;8.134;2023-11-21T15:45:03;10.70;99.90
3300;DHT22;1662;49.310;8.134;2023-11-21T15:47:32;10.70;99.90
3300;DHT22;1662;49.310;8.134;2023-11-21T15:49:58;10.70;99.90
3300;DHT22;1662;49.310;8.134;2023-11-21T15:52:24;10.70;99.90
3300;DHT22;1662;49.310;8.134;2023-11-21T15:54:49;10.70;99.90
3300;DHT22;1662;49.310;8.134;2023-11-21T15:57:15;10.60;99.90
3300;DHT22;1662;49.310;8.134;2023-11-21T15:59:43;10.60;99.90
3300;DHT22;1662;49.310;8.134;2023-11-21T16:02:10;10.70;99.90
3300;DHT22;1662;49.310;8.134;2023-11-21T16:04:37;10.70;99.90
3300;DHT22;1662;49.310;8.134;2023-11-21T16:07:06;10.60;99.90
3300;DHT22;1662;49.310;8.134;2023-11-21T16:09:33;10.60;99.90
3300;DHT22;1662;49.310;8.134;2023-11-21T16:12:04;10.60;99.90
3300;DHT22;1662;49.310;8.134;2023-11-21T16:14:35;10.60;99.90
3300;DHT22;1662;49.310;8.134;2023-11-21T16:17:07;10.50;99.90
3300;DHT22;1662;49.310;8.134;2023-11-21T16:19:33;10.50;99.90
3300;DHT22;1662;49.310;8.134;2023-11-21T16:21:59;10.60;99.90
3300;DHT22;1662;49.310;8.134;2023-11-21T16:24:26;10.60;99.90
3300;DHT22;1662;49.310;8.134;2023-11-21T16:26:53;10.50;99.90